Aullville, Missouri
Current Conditions -  °F | °C
As of 6:15 PM on Wednesday 26 Nov 2014 (Local Time) from KRCM Reporting Station
Overcast Overcast  
Wind Chill: -6°   Ceiling: 1600
Heat Index:   Visibility: 10mi
Dew Point: -2°   Wind: 15mph
Humidity: 87%   Direction: 300°WNW
Pressure: 30.19"   Gusts: 24mph
Location:  39.0541°N, 93.6618°W
Report Text: KRCM 270015Z AUTO 30013G21KT 10SM OVC016 00/M02 A3019 RMK AO2
Loading
Personal Weather Stations






























Interactive Weather Map New forecast layout! Learn more

10-Day Weather Forecast

Advertisements
Track Severe Weather on mobile